Virgie Cenac — WDC2765 — position and weather

sailwx.info

Track history (hours):
 
Tides and Currents Weather Stations Pressure Air Temp Water Temp Dewpoint Dewpoint Depression Visibility Wind Speed Wind Dir Waves Ship Positions

Virgie Cenac

Owner: Cenac Marine Transportation, Inc., Houma, LA. More information available from US FCC via Universal Licensing System and Coast Guard Vessel Documentation Center.

Last reported at 2017-Aug-21 02:39 UTC. Time now 2017-Aug-22 22:33 UTC.
Position N 29°32' W 090°51'.

Length 18 m; draft 3 m.

Type: Towing. MMSI: 366997430.

Date/timePositionNaut miles runAvg speedWind from/ knotsBaromVisibWave heightAir tempDewpointWater temp
2017-Aug-21 02:39N 29°32' W 090°51'1 2.2
2017-Aug-21 02:22N 29°32' W 090°50'1 2.2
2017-Aug-21 01:59N 29°32' W 090°49'1 2.3
2017-Aug-21 01:30N 29°32' W 090°48'1 2.3
2017-Aug-21 01:00N 29°32' W 090°47'1 2.2
2017-Aug-21 00:30N 29°32' W 090°46'1 2.4
2017-Aug-21 00:00N 29°34' W 090°45'1 2.4
2017-Aug-20 23:30N 29°34' W 090°44'1 2.1
2017-Aug-20 23:00N 29°35' W 090°43'1 2.3
2017-Aug-20 22:30N 29°36' W 090°43'1 1.7
2017-Aug-20 22:00N 29°37' W 090°42'1 1.1
2017-Aug-20 21:30N 29°37' W 090°42'1 2.5
2017-Aug-20 21:00N 29°36' W 090°40'1 0.7
2017-Aug-20 20:12N 29°36' W 090°40'0 0.0
2017-Aug-20 19:55N 29°36' W 090°40'0 0.1
2017-Aug-20 19:28N 29°36' W 090°40'0 0.0
2017-Aug-20 18:57N 29°36' W 090°40'0 0.2
2017-Aug-20 18:30N 29°36' W 090°40'0 0.0
2017-Aug-20 18:00N 29°36' W 090°40'0 0.2
2017-Aug-20 17:22N 29°36' W 090°40'0 0.1
2017-Aug-20 16:39N 29°36' W 090°40'0 1.3
2017-Aug-20 16:30N 29°36' W 090°40'2 4.9
2017-Aug-20 16:01N 29°35' W 090°43'3 6.1
2017-Aug-20 15:30N 29°33' W 090°45'  
2017-Aug-16 22:41N 29°32' W 090°50'1 7.2
2017-Aug-16 22:30N 29°32' W 090°49'3 6.4
2017-Aug-16 22:00N 29°33' W 090°45'3 5.6
2017-Aug-16 21:30N 29°35' W 090°43'2 3.6
2017-Aug-16 21:00N 29°37' W 090°42'2 4.5
2017-Aug-16 20:30N 29°36' W 090°40'3 6.6
2017-Aug-16 20:00N 29°35' W 090°36'  
Track history (hours):
 
Tides and Currents Weather Stations Pressure Air Temp Water Temp Dewpoint Dewpoint Depression Visibility Wind Speed Wind Dir Waves Ship Positions

Virgie Cenac

Owner: Cenac Marine Transportation, Inc., Houma, LA. More information available from US FCC via Universal Licensing System and Coast Guard Vessel Documentation Center.

Last reported at 2017-Aug-21 02:39 UTC. Time now 2017-Aug-22 22:33 UTC.
Position N 29°32' W 090°51'.

Length 18 m; draft 3 m.

Type: Towing. MMSI: 366997430.

Date/timePositionNaut miles runAvg speedWind from/ knotsBaromVisibWave heightAir tempDewpointWater temp
2017-Aug-21 02:39N 29°32' W 090°51'1 2.2
2017-Aug-21 02:22N 29°32' W 090°50'1 2.2
2017-Aug-21 01:59N 29°32' W 090°49'1 2.3
2017-Aug-21 01:30N 29°32' W 090°48'1 2.3
2017-Aug-21 01:00N 29°32' W 090°47'1 2.2
2017-Aug-21 00:30N 29°32' W 090°46'1 2.4
2017-Aug-21 00:00N 29°34' W 090°45'1 2.4
2017-Aug-20 23:30N 29°34' W 090°44'1 2.1
2017-Aug-20 23:00N 29°35' W 090°43'1 2.3
2017-Aug-20 22:30N 29°36' W 090°43'1 1.7
2017-Aug-20 22:00N 29°37' W 090°42'1 1.1
2017-Aug-20 21:30N 29°37' W 090°42'1 2.5
2017-Aug-20 21:00N 29°36' W 090°40'1 0.7
2017-Aug-20 20:12N 29°36' W 090°40'0 0.0
2017-Aug-20 19:55N 29°36' W 090°40'0 0.1
2017-Aug-20 19:28N 29°36' W 090°40'0 0.0
2017-Aug-20 18:57N 29°36' W 090°40'0 0.2
2017-Aug-20 18:30N 29°36' W 090°40'0 0.0
2017-Aug-20 18:00N 29°36' W 090°40'0 0.2
2017-Aug-20 17:22N 29°36' W 090°40'0 0.1
2017-Aug-20 16:39N 29°36' W 090°40'0 1.3
2017-Aug-20 16:30N 29°36' W 090°40'2 4.9
2017-Aug-20 16:01N 29°35' W 090°43'3 6.1
2017-Aug-20 15:30N 29°33' W 090°45'  
2017-Aug-16 22:41N 29°32' W 090°50'1 7.2
2017-Aug-16 22:30N 29°32' W 090°49'3 6.4
2017-Aug-16 22:00N 29°33' W 090°45'3 5.6
2017-Aug-16 21:30N 29°35' W 090°43'2 3.6
2017-Aug-16 21:00N 29°37' W 090°42'2 4.5
2017-Aug-16 20:30N 29°36' W 090°40'3 6.6
2017-Aug-16 20:00N 29°35' W 090°36'  

Dump ship's entire track history